createdAt,value
2023-03-15T00:02:57.156Z,24.55
2023-03-15T00:03:57.242Z,24.55
2023-03-15T00:04:57.094Z,24.55
2023-03-15T00:05:57.081Z,24.56
2023-03-15T00:06:57.057Z,24.55
2023-03-15T00:07:57.025Z,24.57
2023-03-15T00:08:56.993Z,24.56
2023-03-15T00:09:56.958Z,24.56
2023-03-15T00:10:56.925Z,24.55
2023-03-15T00:11:56.897Z,24.55
2023-03-15T00:12:56.885Z,24.55
2023-03-15T00:13:56.859Z,24.55
2023-03-15T00:14:56.833Z,24.56
2023-03-15T00:15:56.918Z,24.55
2023-03-15T00:16:56.793Z,24.56
2023-03-15T00:17:56.790Z,24.55
2023-03-15T00:18:56.739Z,24.55
2023-03-15T00:19:56.697Z,24.55
2023-03-15T00:20:56.685Z,24.55
2023-03-15T00:21:56.634Z,24.54
2023-03-15T00:22:56.615Z,24.54
2023-03-15T00:23:56.580Z,24.55
2023-03-15T00:24:56.556Z,24.54
2023-03-15T00:25:56.527Z,24.55
2023-03-15T00:26:56.499Z,24.54
2023-03-15T00:27:56.475Z,24.55
2023-03-15T00:28:56.452Z,24.54
2023-03-15T00:29:56.412Z,24.55
2023-03-15T00:30:56.411Z,24.55
2023-03-15T00:31:56.350Z,24.55
2023-03-15T00:32:56.390Z,24.55
2023-03-15T00:33:56.303Z,24.55
2023-03-15T00:34:56.274Z,24.55
2023-03-15T00:35:56.247Z,24.54
2023-03-15T00:36:56.205Z,24.54
2023-03-15T00:37:56.173Z,24.55
2023-03-15T00:38:56.168Z,24.53
2023-03-15T00:39:56.109Z,24.54
2023-03-15T00:40:56.073Z,24.54
2023-03-15T00:41:56.038Z,24.54
2023-03-15T00:42:55.997Z,24.54
2023-03-15T00:43:56.008Z,24.54
2023-03-15T00:44:55.932Z,24.54
2023-03-15T00:45:55.895Z,24.54
2023-03-15T00:46:55.926Z,24.54
2023-03-15T00:47:55.828Z,24.54
2023-03-15T00:48:55.796Z,24.53
2023-03-15T00:49:55.763Z,24.53
2023-03-15T00:50:55.733Z,24.53
2023-03-15T00:51:55.722Z,24.52
2023-03-15T00:52:55.666Z,24.53
2023-03-15T00:53:55.620Z,24.53
2023-03-15T00:54:55.590Z,24.53
2023-03-15T00:55:55.557Z,24.53
2023-03-15T00:56:55.511Z,24.53
2023-03-15T00:57:55.494Z,24.53
2023-03-15T00:58:55.485Z,24.52
2023-03-15T00:59:55.415Z,24.53
2023-03-15T01:00:55.367Z,24.52
2023-03-15T01:01:55.385Z,24.52
2023-03-15T01:02:55.338Z,24.52
2023-03-15T01:03:55.266Z,24.52
2023-03-15T01:04:55.219Z,24.52
2023-03-15T01:05:55.177Z,24.53
2023-03-15T01:06:55.145Z,24.51
2023-03-15T01:07:55.110Z,24.52
2023-03-15T01:08:55.058Z,24.52
2023-03-15T01:09:55.026Z,24.52
2023-03-15T01:10:54.987Z,24.53
2023-03-15T01:11:54.962Z,24.53
2023-03-15T01:12:54.917Z,24.51
2023-03-15T01:13:54.888Z,24.53
2023-03-15T01:14:54.852Z,24.53
2023-03-15T01:15:54.849Z,24.52
2023-03-15T01:16:54.757Z,24.53
2023-03-15T01:17:54.720Z,24.52
2023-03-15T01:18:54.702Z,24.52
2023-03-15T01:19:54.649Z,24.52
2023-03-15T01:20:54.616Z,24.52
2023-03-15T01:21:54.553Z,24.52
2023-03-15T01:22:54.511Z,24.52
2023-03-15T01:23:54.488Z,24.52
2023-03-15T01:24:54.460Z,24.52
2023-03-15T01:25:54.414Z,24.51
2023-03-15T01:26:54.396Z,24.50
2023-03-15T01:27:54.383Z,24.52
2023-03-15T01:28:54.346Z,24.50
2023-03-15T01:29:54.317Z,24.51
2023-03-15T01:30:54.266Z,24.51
2023-03-15T01:31:54.303Z,24.50
2023-03-15T01:32:54.256Z,24.51
2023-03-15T01:33:54.167Z,24.51
2023-03-15T01:34:54.218Z,24.50
2023-03-15T01:35:54.108Z,24.51
2023-03-15T01:36:54.059Z,24.50
2023-03-15T01:37:54.026Z,24.50
2023-03-15T01:38:53.991Z,24.49
2023-03-15T01:39:53.983Z,24.50
2023-03-15T01:40:53.933Z,24.50
2023-03-15T01:41:53.894Z,24.49
2023-03-15T01:42:53.868Z,24.49
2023-03-15T01:43:53.825Z,24.48
2023-03-15T01:44:53.793Z,24.50
2023-03-15T01:45:53.750Z,24.50
2023-03-15T01:46:53.797Z,24.49
2023-03-15T01:47:53.702Z,24.49
2023-03-15T01:48:53.657Z,24.50
2023-03-15T01:49:53.623Z,24.50
2023-03-15T01:50:53.603Z,24.50
2023-03-15T01:51:53.569Z,24.50
2023-03-15T01:52:53.522Z,24.50
2023-03-15T01:53:53.491Z,24.49
2023-03-15T01:54:53.457Z,24.49
2023-03-15T01:55:53.416Z,24.49
2023-03-15T01:56:53.388Z,24.49
2023-03-15T01:57:53.349Z,24.49
2023-03-15T01:58:53.320Z,24.49
2023-03-15T01:59:53.276Z,24.49
2023-03-15T02:00:53.287Z,24.49
2023-03-15T02:01:53.224Z,24.49
2023-03-15T02:02:53.164Z,24.48
2023-03-15T02:03:53.136Z,24.48
2023-03-15T02:04:53.100Z,24.48
2023-03-15T02:05:53.061Z,24.48
2023-03-15T02:06:53.030Z,24.49
2023-03-15T02:07:52.995Z,24.49
2023-03-15T02:08:52.971Z,24.48
2023-03-15T02:09:52.939Z,24.48
2023-03-15T02:10:52.917Z,24.48
2023-03-15T02:11:52.858Z,24.47
2023-03-15T02:12:52.826Z,24.48
2023-03-15T02:13:52.784Z,24.48
2023-03-15T02:14:52.755Z,24.48
2023-03-15T02:15:52.721Z,24.48
2023-03-15T02:16:52.664Z,24.47
2023-03-15T02:17:52.633Z,24.48
2023-03-15T02:18:52.591Z,24.48
2023-03-15T02:19:52.559Z,24.47
2023-03-15T02:20:52.545Z,24.48
2023-03-15T02:21:52.606Z,24.48
2023-03-15T02:22:52.448Z,24.47
2023-03-15T02:23:52.413Z,24.47
2023-03-15T02:24:52.382Z,24.47
2023-03-15T02:25:52.331Z,24.48
2023-03-15T02:26:52.335Z,24.47
2023-03-15T02:27:52.274Z,24.47
2023-03-15T02:28:52.235Z,24.48
2023-03-15T02:29:52.204Z,24.47
2023-03-15T02:30:52.193Z,24.47
2023-03-15T02:31:52.176Z,24.47
2023-03-15T02:32:52.163Z,24.47
2023-03-15T02:33:52.088Z,24.46
2023-03-15T02:34:52.063Z,24.47
2023-03-15T02:35:52.062Z,24.47
2023-03-15T02:36:51.991Z,24.47
2023-03-15T02:37:51.957Z,24.47
2023-03-15T02:38:51.938Z,24.47
2023-03-15T02:39:51.903Z,24.46
2023-03-15T02:40:51.861Z,24.47
2023-03-15T02:41:51.835Z,24.47
2023-03-15T02:42:51.788Z,24.47
2023-03-15T02:43:51.751Z,24.47
2023-03-15T02:44:51.727Z,24.46
2023-03-15T06:30:43.170Z,23.02
2023-03-15T06:31:43.081Z,22.96
2023-03-15T06:32:43.076Z,22.92
2023-03-15T06:33:43.005Z,22.93
2023-03-15T06:34:42.961Z,22.95
2023-03-15T06:35:42.960Z,22.99
2023-03-15T06:36:42.884Z,23.02
2023-03-15T06:37:42.902Z,23.06
2023-03-15T06:38:42.801Z,23.09
2023-03-15T06:39:42.776Z,23.13
2023-03-15T06:40:42.739Z,23.15
2023-03-15T06:41:42.731Z,23.15
2023-03-15T06:42:42.680Z,23.17
2023-03-15T06:43:42.664Z,23.20
2023-03-15T06:44:42.628Z,23.23
2023-03-15T06:45:42.715Z,23.24
2023-03-15T06:46:42.537Z,23.24
2023-03-15T06:47:42.500Z,23.25
2023-03-15T06:48:42.461Z,23.27
2023-03-15T06:49:42.447Z,23.24
2023-03-15T06:50:47.352Z,23.28
2023-03-15T06:52:42.306Z,23.35
2023-03-15T06:53:42.275Z,23.39
2023-03-15T06:54:42.241Z,23.41
2023-03-15T06:55:42.204Z,23.45
2023-03-15T06:56:42.160Z,23.48
2023-03-15T06:57:44.631Z,23.50
2023-03-15T06:58:42.247Z,23.52
2023-03-15T06:59:42.213Z,23.56
2023-03-15T07:00:42.185Z,23.58
2023-03-15T07:01:42.160Z,23.61
2023-03-15T07:02:42.111Z,23.63
2023-03-15T07:03:42.039Z,23.66
2023-03-15T07:04:41.999Z,23.68
2023-03-15T07:05:41.962Z,23.69
2023-03-15T07:06:41.892Z,23.72
2023-03-15T07:07:41.853Z,23.73
2023-03-15T07:08:41.825Z,23.74
2023-03-15T07:09:41.766Z,23.76
2023-03-15T07:10:41.731Z,23.77
2023-03-15T11:44:05.675Z,25.41
2023-03-15T11:46:05.557Z,25.43
2023-03-15T11:47:05.401Z,25.44
2023-03-15T11:48:05.341Z,25.44
2023-03-15T11:49:05.272Z,25.45
2023-03-15T11:50:05.170Z,25.45
2023-03-15T11:51:05.213Z,25.47
2023-03-15T11:52:05.014Z,25.48
2023-03-15T11:53:04.943Z,25.48
2023-03-15T11:54:04.874Z,25.50
2023-03-15T11:55:04.920Z,25.50
2023-03-15T11:56:04.767Z,25.51
2023-03-15T11:57:04.676Z,25.51
2023-03-15T11:58:04.590Z,25.52
2023-03-15T11:59:04.501Z,25.54
2023-03-15T12:00:04.476Z,25.53
2023-03-15T12:01:04.338Z,25.55
2023-03-15T12:02:04.296Z,25.56
2023-03-15T12:03:04.274Z,25.56
2023-03-15T12:04:04.104Z,25.57
2023-03-15T12:05:17.731Z,25.58
2023-03-15T12:07:03.882Z,25.58
2023-03-15T12:08:03.819Z,25.59
2023-03-15T12:09:03.739Z,25.60
2023-03-15T12:10:03.735Z,25.61
2023-03-15T12:11:03.594Z,25.62
2023-03-15T12:12:03.507Z,25.64
2023-03-15T12:13:03.445Z,25.65
2023-03-15T12:14:03.351Z,25.66
2023-03-15T12:15:03.329Z,25.66
2023-03-15T12:16:03.198Z,25.67
2023-03-15T12:17:03.109Z,25.68
2023-03-15T12:18:03.038Z,25.69
2023-03-15T12:19:03.049Z,25.69
2023-03-15T12:20:02.891Z,25.70
2023-03-15T12:21:02.803Z,25.70
2023-03-15T12:22:02.720Z,25.71
2023-03-15T12:23:02.641Z,25.71
2023-03-15T12:24:02.564Z,25.71
2023-03-15T12:25:02.503Z,25.72
2023-03-15T12:26:02.411Z,25.73
2023-03-15T12:27:02.338Z,25.73
2023-03-15T12:28:02.271Z,25.73
2023-03-15T12:29:02.201Z,25.74
2023-03-15T12:30:02.126Z,25.75
2023-03-15T12:31:02.105Z,25.76
2023-03-15T12:32:01.960Z,25.78
2023-03-15T12:33:01.986Z,25.79
2023-03-15T12:34:01.828Z,25.80
2023-03-15T12:35:01.738Z,25.83
2023-03-15T13:24:57.863Z,26.08
2023-03-15T13:25:57.789Z,26.10
2023-03-15T13:26:57.697Z,26.10
2023-03-15T13:27:57.619Z,26.11
2023-03-15T13:28:57.549Z,26.12
2023-03-15T13:29:57.465Z,26.12
2023-03-15T13:30:57.396Z,26.12
2023-03-15T13:31:57.285Z,26.13
2023-03-15T13:32:57.220Z,26.16
2023-03-15T13:33:57.134Z,26.16
2023-03-15T13:34:57.047Z,26.18
2023-03-15T13:35:56.962Z,26.16
2023-03-15T13:36:56.890Z,26.16
2023-03-15T13:37:56.789Z,26.14
2023-03-15T13:38:56.757Z,26.13
2023-03-15T13:39:56.630Z,26.13
2023-03-15T13:40:56.588Z,26.13
2023-03-15T13:41:56.500Z,26.14
2023-03-15T13:42:57.735Z,26.12
2023-03-15T13:43:56.298Z,26.12
2023-03-15T13:44:56.217Z,26.12
2023-03-15T13:45:56.195Z,26.14
2023-03-15T13:46:56.097Z,26.16
2023-03-15T13:47:55.961Z,26.17
2023-03-15T13:48:55.886Z,26.19
2023-03-15T13:49:55.797Z,26.19
2023-03-15T13:50:55.728Z,26.08
2023-03-15T13:51:55.627Z,25.97
2023-03-15T13:52:55.550Z,25.82
2023-03-15T13:53:55.459Z,25.65
2023-03-15T13:54:55.450Z,25.40
2023-03-15T13:55:55.297Z,25.08
2023-03-15T13:56:55.226Z,24.89
2023-03-15T13:57:55.154Z,24.78
2023-03-15T13:58:55.059Z,24.69
2023-03-15T13:59:54.996Z,24.62
2023-03-15T14:00:54.901Z,24.48
2023-03-15T14:01:54.875Z,24.43
2023-03-15T14:02:54.774Z,24.41
2023-03-15T14:03:54.666Z,24.35
2023-03-15T14:04:54.655Z,24.26
2023-03-15T14:05:54.519Z,24.22
2023-03-15T14:06:54.449Z,24.17
2023-03-15T14:07:54.423Z,24.17
2023-03-15T14:08:54.305Z,24.17
2023-03-15T14:09:55.291Z,24.21
2023-03-15T14:10:54.175Z,24.26
2023-03-15T14:11:54.096Z,24.33
2023-03-15T14:12:54.016Z,24.42
2023-03-15T14:13:53.946Z,24.48
2023-03-15T14:14:53.917Z,24.54
2023-03-15T14:15:53.813Z,24.60
2023-03-15T14:17:04.977Z,24.65
2023-03-15T14:17:54.619Z,24.71
2023-03-15T14:18:53.545Z,24.76
2023-03-15T14:19:53.467Z,24.81
2023-03-15T14:20:53.388Z,24.85
2023-03-15T14:21:53.332Z,24.89
2023-03-15T14:22:53.231Z,24.94
2023-03-15T14:23:53.181Z,25.00
2023-03-15T14:24:53.072Z,25.03
2023-03-15T14:25:53.045Z,25.06
2023-03-15T14:26:52.962Z,25.11
2023-03-15T14:27:52.841Z,25.13
2023-03-15T14:28:52.766Z,25.13
2023-03-15T14:29:52.688Z,25.14
2023-03-15T14:30:52.608Z,25.09
2023-03-15T14:31:52.545Z,25.06
2023-03-15T14:32:52.557Z,25.04
2023-03-15T14:33:52.390Z,25.01
2023-03-15T14:34:52.312Z,25.02
2023-03-15T14:35:52.263Z,24.97
2023-03-15T14:36:52.170Z,24.93
2023-03-15T14:37:52.080Z,24.90
2023-03-15T14:38:52.008Z,24.90
2023-03-15T14:39:51.996Z,24.90
2023-03-15T14:40:51.865Z,24.90
2023-03-15T14:41:51.798Z,24.92
2023-03-15T14:42:51.692Z,24.92
2023-03-15T14:43:51.620Z,24.94
2023-03-15T14:44:51.537Z,24.96
2023-03-15T14:45:51.537Z,24.98
2023-03-15T14:46:51.367Z,25.01
2023-03-15T14:47:57.960Z,25.02
2023-03-15T14:48:52.236Z,25.04
2023-03-15T14:49:51.157Z,25.05
2023-03-15T14:50:51.086Z,25.05
2023-03-15T14:51:50.990Z,25.07
2023-03-15T14:52:50.933Z,25.09
2023-03-15T14:53:50.893Z,25.10
2023-03-15T14:54:50.778Z,25.11
2023-03-15T14:55:50.712Z,25.12
2023-03-15T14:56:50.628Z,25.13
2023-03-15T14:57:50.614Z,25.14
2023-03-15T14:58:50.461Z,25.16
2023-03-15T14:59:50.412Z,25.17
2023-03-15T15:00:50.376Z,25.19
2023-03-15T15:01:50.318Z,25.18
2023-03-15T15:02:50.192Z,25.19
2023-03-15T15:03:50.096Z,25.19
2023-03-15T15:04:50.034Z,25.20
2023-03-15T15:05:50.761Z,25.21
2023-03-15T15:06:49.865Z,25.21
2023-03-15T15:07:49.812Z,25.21
2023-03-15T15:08:49.883Z,25.21
2023-03-15T15:09:49.694Z,25.22
2023-03-15T15:10:49.780Z,25.22
2023-03-15T15:11:49.524Z,25.23
2023-03-15T15:12:56.367Z,25.23
2023-03-15T15:13:50.381Z,25.23
2023-03-15T15:14:49.301Z,25.24
2023-03-15T15:15:55.792Z,25.23
2023-03-15T15:16:50.177Z,25.22
2023-03-15T15:17:49.066Z,25.24
2023-03-15T15:18:48.983Z,25.25
2023-03-15T15:19:48.900Z,25.26
2023-03-15T15:20:48.819Z,25.26
2023-03-15T15:21:48.745Z,25.25
2023-03-15T15:22:48.675Z,25.26
2023-03-15T15:23:57.896Z,25.26
2023-03-15T15:24:51.340Z,25.26
2023-03-15T15:25:48.446Z,25.26
2023-03-15T15:26:48.361Z,25.27
2023-03-15T15:27:48.284Z,25.27
2023-03-15T15:28:48.208Z,25.26
2023-03-15T15:29:48.145Z,25.26
2023-03-15T15:30:48.051Z,25.24
2023-03-15T15:31:48.037Z,25.23
2023-03-15T15:32:47.981Z,25.21
2023-03-15T15:33:47.861Z,25.20
2023-03-15T15:34:47.797Z,25.19
2023-03-15T15:35:47.771Z,25.17
2023-03-15T15:36:47.654Z,25.16
2023-03-15T15:37:47.572Z,25.14
2023-03-15T15:38:47.494Z,25.13
2023-03-15T15:39:47.432Z,25.12
2023-03-15T15:40:47.357Z,25.11
2023-03-15T15:41:47.282Z,25.11
2023-03-15T15:42:47.229Z,25.11
2023-03-15T15:43:47.156Z,25.10
2023-03-15T15:44:47.070Z,25.09
2023-03-15T15:45:47.018Z,25.08
2023-03-15T15:46:46.919Z,25.07
2023-03-15T15:47:46.858Z,25.07
2023-03-15T15:48:46.767Z,25.06
2023-03-15T15:49:46.691Z,25.05
2023-03-15T15:50:46.637Z,25.05
2023-03-15T15:51:46.561Z,25.05
2023-03-15T15:52:46.484Z,25.04
2023-03-15T15:53:46.393Z,25.03
2023-03-15T15:54:46.331Z,25.03
2023-03-15T15:55:46.321Z,25.02
2023-03-15T15:56:46.205Z,25.01
2023-03-15T15:57:46.125Z,25.02
2023-03-15T15:58:46.032Z,25.01
2023-03-15T15:59:45.959Z,25.01
2023-03-15T16:00:45.905Z,25.01
2023-03-15T16:01:59.528Z,25.00
2023-03-15T16:02:46.804Z,24.99
2023-03-15T16:03:45.654Z,25.01
2023-03-15T16:04:45.581Z,25.02
2023-03-15T16:05:45.512Z,25.02
2023-03-15T16:06:45.428Z,25.02
2023-03-15T16:07:45.360Z,25.03
2023-03-15T16:08:45.304Z,25.03
2023-03-15T16:09:45.219Z,25.04
2023-03-15T16:10:45.147Z,25.05
2023-03-15T16:11:45.078Z,25.06
2023-03-15T16:12:45.020Z,25.06
2023-03-15T16:13:44.936Z,25.06
2023-03-15T16:14:44.855Z,25.06
2023-03-15T16:15:44.882Z,25.07
2023-03-15T16:16:44.717Z,25.07
2023-03-15T16:17:44.657Z,25.07
2023-03-15T16:18:44.640Z,25.08
2023-03-15T16:19:44.520Z,25.09
2023-03-15T16:20:44.462Z,25.10
2023-03-15T16:21:44.369Z,25.09
2023-03-15T16:22:44.295Z,25.10
2023-03-15T16:23:44.248Z,25.10
2023-03-15T16:24:44.152Z,25.09
2023-03-15T16:25:44.085Z,25.09
2023-03-15T16:26:44.015Z,25.09
2023-03-15T16:27:43.955Z,25.08
2023-03-15T16:28:43.860Z,25.09
2023-03-15T16:29:43.793Z,25.09
2023-03-15T16:30:46.525Z,25.08
2023-03-15T16:31:43.652Z,25.08
2023-03-15T16:32:44.926Z,25.08
2023-03-15T16:33:43.516Z,25.08
2023-03-15T16:34:43.427Z,25.08
2023-03-15T16:35:43.404Z,25.08
2023-03-15T16:36:43.295Z,25.08
2023-03-15T16:37:43.215Z,25.08
2023-03-15T16:38:43.158Z,25.09
2023-03-15T16:39:43.076Z,25.08
2023-03-15T16:40:42.993Z,25.07
2023-03-15T16:41:42.948Z,25.08
2023-03-15T16:42:42.863Z,25.08
2023-03-15T16:43:42.797Z,25.08
2023-03-15T16:44:42.714Z,25.07
2023-03-15T16:45:42.655Z,25.07
2023-03-15T16:46:42.629Z,25.07
2023-03-15T16:47:42.502Z,25.07
2023-03-15T16:48:42.446Z,25.07
2023-03-15T16:49:42.364Z,25.07
2023-03-15T16:50:42.316Z,25.07
2023-03-15T16:51:42.217Z,25.07
2023-03-15T16:52:42.158Z,25.07
2023-03-15T16:53:42.089Z,25.07
2023-03-15T16:54:42.035Z,25.06
2023-03-15T16:55:41.949Z,25.06
2023-03-15T16:56:41.876Z,25.06
2023-03-15T16:57:41.813Z,25.05
2023-03-15T16:58:41.738Z,25.05
2023-03-15T17:57:40.408Z,24.92
2023-03-15T17:58:38.346Z,24.91
2023-03-15T17:59:37.261Z,24.91
2023-03-15T18:00:37.189Z,24.90
2023-03-15T18:01:37.197Z,24.91
2023-03-15T18:02:38.669Z,24.91
2023-03-15T18:03:36.983Z,24.90
2023-03-15T18:04:36.893Z,24.89
2023-03-15T18:05:36.824Z,24.90
2023-03-15T18:06:36.757Z,24.89
2023-03-15T18:07:36.966Z,24.89
2023-03-15T18:08:36.593Z,24.88
2023-03-15T18:09:36.539Z,24.88
2023-03-15T18:10:36.460Z,24.88
2023-03-15T18:11:36.392Z,24.88
2023-03-15T18:12:36.310Z,24.88
2023-03-15T18:13:36.237Z,24.88
2023-03-15T18:14:36.162Z,24.89
2023-03-15T18:15:36.089Z,24.88
2023-03-15T18:16:36.070Z,24.87
2023-03-15T18:17:35.951Z,24.87
2023-03-15T18:18:35.886Z,24.87
2023-03-15T18:19:35.820Z,24.86
2023-03-15T18:20:35.759Z,24.86
2023-03-15T18:21:35.652Z,24.86
2023-03-15T18:22:35.585Z,24.86
2023-03-15T18:23:35.508Z,24.85
2023-03-15T18:24:35.435Z,24.85
2023-03-15T18:25:35.353Z,24.86
2023-03-15T18:26:35.284Z,24.85
2023-03-15T18:27:35.192Z,24.84
2023-03-15T18:28:35.131Z,24.85
2023-03-15T18:29:35.082Z,24.85
2023-03-15T18:30:34.992Z,24.85
2023-03-15T18:31:34.978Z,24.84
2023-03-15T18:32:34.906Z,24.84
2023-03-15T18:33:34.779Z,24.84
2023-03-15T18:34:34.712Z,24.83
2023-03-15T18:35:34.783Z,24.83
2023-03-15T18:36:34.598Z,24.83
2023-03-15T18:37:34.511Z,24.82
2023-03-15T18:38:34.473Z,24.82
2023-03-15T18:39:34.347Z,24.82
2023-03-15T18:40:34.289Z,24.82
2023-03-15T18:41:34.227Z,24.81
2023-03-15T18:42:34.143Z,24.80
2023-03-15T18:43:34.074Z,24.80
2023-03-15T18:44:33.995Z,24.81
2023-03-15T18:45:33.931Z,24.81
2023-03-15T18:46:33.898Z,24.81
2023-03-15T18:47:33.785Z,24.80
2023-03-15T18:48:40.360Z,24.80
2023-03-15T18:49:34.642Z,24.79
2023-03-15T18:50:33.564Z,24.79
2023-03-15T18:51:33.453Z,24.79
2023-03-15T18:52:33.390Z,24.79
2023-03-15T18:53:33.316Z,24.80
2023-03-15T18:54:33.249Z,24.79
2023-03-15T18:55:33.169Z,24.79
2023-03-15T18:56:33.085Z,24.78
2023-03-15T18:57:33.012Z,24.79
2023-03-15T18:58:32.938Z,24.78
2023-03-15T18:59:32.871Z,24.78
2023-03-15T19:00:32.808Z,24.78
2023-03-15T19:01:32.764Z,24.78
2023-03-15T19:02:32.719Z,24.78
2023-03-15T19:03:32.551Z,24.79
2023-03-15T19:04:32.495Z,24.78
2023-03-15T19:05:32.411Z,24.78
2023-03-15T19:06:32.358Z,24.78
2023-03-15T19:07:32.260Z,24.77
2023-03-15T19:08:32.198Z,24.77
2023-03-15T19:09:32.114Z,24.77
2023-03-15T19:10:32.032Z,24.77
2023-03-15T19:11:31.945Z,24.77
2023-03-15T19:12:31.866Z,24.76
2023-03-15T19:13:31.803Z,24.76
2023-03-15T19:14:31.717Z,24.76
2023-03-15T21:07:23.365Z,24.64
2023-03-15T21:08:23.283Z,24.65
2023-03-15T21:09:23.221Z,24.65
2023-03-15T21:10:23.464Z,24.65
2023-03-15T21:11:23.063Z,24.65
2023-03-15T21:12:23.003Z,24.64
2023-03-15T21:13:22.910Z,24.65
2023-03-15T21:14:22.830Z,24.64
2023-03-15T21:15:22.730Z,24.64
2023-03-15T21:16:23.924Z,24.64
2023-03-15T21:17:22.592Z,24.63
2023-03-15T21:18:22.531Z,24.63
2023-03-15T21:19:22.433Z,24.65
2023-03-15T21:20:22.558Z,24.65
2023-03-15T21:21:22.305Z,24.64
2023-03-15T21:22:22.602Z,24.64
2023-03-15T21:23:22.169Z,24.63
2023-03-15T21:24:22.085Z,24.64
2023-03-15T21:25:21.994Z,24.65
2023-03-15T21:26:21.924Z,24.63
2023-03-15T21:27:21.841Z,24.63
2023-03-15T21:28:21.758Z,24.63
2023-03-15T21:29:21.679Z,24.64
2023-03-15T21:30:22.027Z,24.63
2023-03-15T21:31:21.550Z,24.63
2023-03-15T21:32:21.453Z,24.63
2023-03-15T21:33:21.387Z,24.63
2023-03-15T21:34:21.295Z,24.63
2023-03-15T21:35:21.243Z,24.63
2023-03-15T21:36:21.147Z,24.62
2023-03-15T21:37:21.082Z,24.62
2023-03-15T21:38:21.022Z,24.62
2023-03-15T21:39:20.919Z,24.62
2023-03-15T21:40:20.888Z,24.62
2023-03-15T21:41:20.766Z,24.61
2023-03-15T21:42:20.707Z,24.62
2023-03-15T21:43:20.631Z,24.61
2023-03-15T21:44:20.549Z,24.62
2023-03-15T21:45:20.536Z,24.61
2023-03-15T21:46:20.483Z,24.61
2023-03-15T21:47:20.341Z,24.62
2023-03-15T21:48:20.276Z,24.61
2023-03-15T21:49:20.179Z,24.61
2023-03-15T21:50:20.106Z,24.61
2023-03-15T21:51:20.017Z,24.60
2023-03-15T21:52:19.940Z,24.61
2023-03-15T21:53:19.877Z,24.61
2023-03-15T21:54:19.794Z,24.61
2023-03-15T21:55:19.708Z,24.62
2023-03-15T21:56:19.629Z,24.60
2023-03-15T21:57:19.552Z,24.60
2023-03-15T21:58:19.498Z,24.61
2023-03-15T21:59:19.409Z,24.61
2023-03-15T22:00:19.337Z,24.60
2023-03-15T22:01:19.275Z,24.60
2023-03-15T22:02:19.195Z,24.60
2023-03-15T22:03:19.111Z,24.60
2023-03-15T22:04:19.103Z,24.60
2023-03-15T22:05:18.973Z,24.60
2023-03-15T22:06:18.883Z,24.60
2023-03-15T22:07:18.815Z,24.60
2023-03-15T22:08:18.749Z,24.60
2023-03-15T22:09:18.677Z,24.60
2023-03-15T22:10:18.592Z,24.60
2023-03-15T22:11:18.531Z,24.60
2023-03-15T22:12:18.449Z,24.59
2023-03-15T22:13:18.414Z,24.59
2023-03-15T22:14:18.321Z,24.59
2023-03-15T22:15:18.240Z,24.58
2023-03-15T22:16:18.227Z,24.59
2023-03-15T22:17:18.109Z,24.59
2023-03-15T22:18:18.079Z,24.59
2023-03-15T22:19:17.951Z,24.59
2023-03-15T22:20:17.880Z,24.59
2023-03-15T22:21:17.809Z,24.59
2023-03-15T22:22:17.741Z,24.59
2023-03-15T22:23:17.654Z,24.59
2023-03-15T22:24:17.576Z,24.58
2023-03-15T22:25:17.527Z,24.59
2023-03-15T22:26:17.444Z,24.59
2023-03-15T22:27:17.351Z,24.59
2023-03-15T22:28:17.277Z,24.59
2023-03-15T22:29:17.227Z,24.59
2023-03-15T22:30:17.150Z,24.58
2023-03-15T22:31:17.173Z,24.59
2023-03-15T22:32:17.013Z,24.58
2023-03-15T22:33:16.926Z,24.58
2023-03-15T22:34:16.881Z,24.58
2023-03-15T22:35:16.780Z,24.58
2023-03-15T22:36:16.716Z,24.57
2023-03-15T22:37:16.645Z,24.58
2023-03-15T22:38:16.579Z,24.58
2023-03-15T22:39:16.517Z,24.58
2023-03-15T22:40:16.431Z,24.58
2023-03-15T22:41:16.361Z,24.58
2023-03-15T22:42:16.294Z,24.58
2023-03-15T22:43:16.221Z,24.58
2023-03-15T22:44:16.149Z,24.58
2023-03-15T22:45:16.090Z,24.57
2023-03-15T22:46:16.075Z,24.58
2023-03-15T22:47:15.936Z,24.57
2023-03-15T22:48:15.874Z,24.57
2023-03-15T22:49:15.789Z,24.57
2023-03-15T22:50:15.728Z,24.58
2023-03-15T22:51:15.680Z,24.57
2023-03-15T22:52:15.581Z,24.56
2023-03-15T22:53:15.487Z,24.56
2023-03-15T22:54:15.416Z,24.57
2023-03-15T22:55:15.358Z,24.56
2023-03-15T22:56:15.263Z,24.56
2023-03-15T22:57:15.196Z,24.56
2023-03-15T22:58:15.111Z,24.56
2023-03-15T22:59:15.056Z,24.56
2023-03-15T23:00:14.950Z,24.56
2023-03-15T23:01:14.948Z,24.56
2023-03-15T23:02:14.813Z,24.56
2023-03-15T23:03:14.724Z,24.56
2023-03-15T23:04:14.706Z,24.55
2023-03-15T23:05:14.597Z,24.55
2023-03-15T23:06:14.533Z,24.56
2023-03-15T23:07:14.433Z,24.55
2023-03-15T23:08:14.357Z,24.55
2023-03-15T23:09:14.296Z,24.56
2023-03-15T23:10:14.199Z,24.56
2023-03-15T23:11:14.129Z,24.55
2023-03-15T23:12:15.350Z,24.55
2023-03-15T23:13:13.986Z,24.55
2023-03-15T23:14:13.921Z,24.54
2023-03-15T23:15:13.826Z,24.54
2023-03-15T23:16:13.766Z,24.54
2023-03-15T23:17:13.686Z,24.54
2023-03-15T23:18:13.588Z,24.54
2023-03-15T23:19:13.524Z,24.55
2023-03-15T23:20:13.464Z,24.54
2023-03-15T23:21:13.456Z,24.54
2023-03-15T23:22:13.519Z,24.54
2023-03-15T23:23:13.428Z,24.54
2023-03-15T23:24:13.423Z,24.54
2023-03-15T23:25:13.404Z,24.54
2023-03-15T23:26:13.381Z,24.55
2023-03-15T23:27:13.364Z,24.54
2023-03-15T23:28:13.363Z,24.54
2023-03-15T23:29:13.387Z,24.53
2023-03-15T23:30:13.255Z,24.53
2023-03-15T23:31:13.223Z,24.53
2023-03-15T23:32:13.105Z,24.53
2023-03-15T23:33:13.054Z,24.53
2023-03-15T23:34:12.972Z,24.53
2023-03-15T23:35:12.906Z,24.53
2023-03-15T23:36:12.835Z,24.53
2023-03-15T23:37:12.770Z,24.53
2023-03-15T23:38:12.677Z,24.52
2023-03-15T23:39:12.602Z,24.53
2023-03-15T23:40:12.545Z,24.52
2023-03-15T23:41:12.457Z,24.52
2023-03-15T23:42:12.395Z,24.52
2023-03-15T23:43:12.307Z,24.51
2023-03-15T23:44:12.236Z,24.52
2023-03-15T23:45:12.180Z,24.52
2023-03-15T23:46:12.140Z,24.53
2023-03-15T23:47:12.017Z,24.51
2023-03-15T23:48:11.959Z,24.52
2023-03-15T23:49:11.846Z,24.51
2023-03-15T23:50:11.776Z,24.50
2023-03-15T23:51:11.697Z,24.50
2023-03-15T23:52:11.616Z,24.51
2023-03-15T23:53:11.544Z,24.50
2023-03-15T23:54:11.470Z,24.51
2023-03-15T23:55:11.415Z,24.51
2023-03-15T23:56:11.321Z,24.50
2023-03-15T23:57:11.238Z,24.51
2023-03-15T23:58:11.168Z,24.52
2023-03-15T23:59:11.093Z,24.50
